Time;durP1;ratioP1;P1;durP2;ratioP2;P2;SDS_P1;SDS_P2;PMS_P1;PMS_P2;Temp;Humidity;BMP_temperature;BMP_pressure;BME280_temperature;BME280_humidity;BME280_pressure;Samples;Min_cycle;Max_cycle;Signal;HPM_P1;HPM_P2
2022/12/24 00:01:41;;;;;;;12.20;9.00;;;7.40;99.90;;;;;;5037139;28;20317;-68
2022/12/24 00:04:06;;;;;;;11.77;8.13;;;7.30;99.90;;;;;;5036838;28;20290;-68
2022/12/24 00:06:32;;;;;;;13.47;8.73;;;7.30;99.90;;;;;;5036734;28;20691;-67
2022/12/24 00:08:57;;;;;;;15.77;11.07;;;7.30;99.90;;;;;;5036548;28;20223;-67
2022/12/24 00:11:23;;;;;;;13.50;9.20;;;7.30;99.90;;;;;;5033941;28;20799;-68
2022/12/24 00:13:48;;;;;;;19.23;12.33;;;7.30;99.90;;;;;;5036485;28;20211;-68
2022/12/24 00:16:14;;;;;;;14.37;8.77;;;7.30;99.90;;;;;;5031837;28;20198;-68
2022/12/24 00:18:40;;;;;;;12.37;8.87;;;7.30;99.90;;;;;;5031132;28;20199;-67
2022/12/24 00:21:05;;;;;;;31.80;18.23;;;7.30;99.90;;;;;;5034757;28;20234;-67
2022/12/24 00:23:31;;;;;;;9.80;8.03;;;7.30;99.90;;;;;;5036113;28;20199;-68
2022/12/24 00:25:57;;;;;;;22.80;14.20;;;7.30;99.90;;;;;;5033555;28;20411;-67
2022/12/24 00:28:22;;;;;;;10.83;8.10;;;7.30;99.90;;;;;;5036298;28;20199;-68
2022/12/24 00:30:48;;;;;;;8.97;7.93;;;7.30;99.90;;;;;;5035937;28;20321;-68
2022/12/24 00:33:13;;;;;;;27.40;16.77;;;7.30;99.90;;;;;;5035827;28;20203;-68
2022/12/24 00:35:40;;;;;;;13.07;11.17;;;7.30;99.90;;;;;;5035677;28;20281;-69
2022/12/24 00:38:06;;;;;;;14.90;8.43;;;7.30;99.90;;;;;;5035743;28;20227;-67
2022/12/24 00:40:32;;;;;;;9.93;7.47;;;7.30;99.90;;;;;;5032980;28;20241;-67
2022/12/24 00:42:58;;;;;;;11.13;7.37;;;7.30;99.90;;;;;;5029709;28;20219;-71
2022/12/24 00:45:25;;;;;;;10.20;8.70;;;7.30;99.90;;;;;;5030783;28;20680;-65
2022/12/24 00:47:51;;;;;;;6.83;5.70;;;7.30;99.90;;;;;;5024077;28;20570;-67
2022/12/24 00:50:16;;;;;;;8.33;6.20;;;7.30;99.90;;;;;;5023987;28;20211;-66
2022/12/24 00:52:42;;;;;;;10.33;7.67;;;7.40;99.90;;;;;;5022399;28;20988;-66
2022/12/24 00:55:07;;;;;;;12.33;8.17;;;7.40;99.90;;;;;;5027621;28;20663;-64
2022/12/24 00:57:33;;;;;;;9.03;6.83;;;7.40;99.90;;;;;;5035393;28;20207;-65
2022/12/24 00:59:58;;;;;;;10.47;8.17;;;7.40;99.90;;;;;;5035400;28;20825;-64
2022/12/24 01:02:24;;;;;;;7.50;6.20;;;7.40;99.90;;;;;;5033991;28;20599;-65
2022/12/24 01:07:34;;;;;;;9.90;6.23;;;7.40;99.90;;;;;;5025071;28;20294;-65
2022/12/24 01:10:00;;;;;;;8.00;6.37;;;7.30;99.90;;;;;;5026234;28;20323;-65
2022/12/24 01:12:25;;;;;;;8.47;6.53;;;7.30;99.90;;;;;;5027076;28;20203;-65
2022/12/24 01:14:51;;;;;;;9.63;7.00;;;7.30;99.90;;;;;;5028815;28;20660;-68
2022/12/24 01:17:17;;;;;;;8.07;6.43;;;7.30;99.90;;;;;;5029059;28;20199;-66
2022/12/24 01:19:42;;;;;;;8.50;7.60;;;7.30;99.90;;;;;;5029294;28;20207;-67
2022/12/24 01:22:08;;;;;;;8.97;6.97;;;7.30;99.90;;;;;;5029457;28;20821;-67
2022/12/24 01:24:33;;;;;;;9.47;6.50;;;7.20;99.90;;;;;;5028834;28;20230;-66
2022/12/24 01:26:59;;;;;;;13.30;8.43;;;7.20;99.90;;;;;;5026696;28;20290;-65
2022/12/24 01:29:24;;;;;;;9.30;7.20;;;7.20;99.90;;;;;;5028402;28;20202;-66
2022/12/24 01:31:50;;;;;;;9.53;7.27;;;7.20;99.90;;;;;;5028072;28;20591;-67
2022/12/24 01:34:15;;;;;;;10.53;7.77;;;7.20;99.90;;;;;;5030868;28;20199;-66
2022/12/24 01:36:41;;;;;;;10.13;8.00;;;7.30;99.90;;;;;;5028166;28;20683;-67
2022/12/24 01:39:06;;;;;;;10.03;6.93;;;7.20;99.90;;;;;;5026762;28;20746;-65
2022/12/24 01:44:31;;;;;;;9.43;7.70;;;7.30;99.90;;;;;;5028219;28;20218;-65
2022/12/24 01:47:14;;;;;;;10.23;7.80;;;7.30;99.90;;;;;;5034810;28;20583;-63
2022/12/24 01:49:55;;;;;;;9.90;7.37;;;7.30;99.90;;;;;;5037571;28;20210;-63
2022/12/24 01:52:25;;;;;;;11.73;8.17;;;7.30;99.90;;;;;;5033039;28;20206;-64
2022/12/24 01:55:08;;;;;;;11.80;8.63;;;7.20;99.90;;;;;;5037859;28;20699;-64
2022/12/24 01:57:41;;;;;;;12.33;8.50;;;7.20;99.90;;;;;;5037775;28;20211;-65
2022/12/24 02:00:14;;;;;;;10.53;8.47;;;7.20;99.90;;;;;;5037819;28;20206;-65
2022/12/24 02:02:43;;;;;;;11.83;8.90;;;7.20;99.90;;;;;;5037760;28;20672;-62
2022/12/24 02:05:21;;;;;;;12.70;9.10;;;7.20;99.90;;;;;;5037729;28;20260;-62
2022/12/24 02:07:47;;;;;;;15.13;8.93;;;7.20;99.90;;;;;;5037864;28;20206;-63
2022/12/24 02:10:14;;;;;;;14.33;9.83;;;7.20;99.90;;;;;;5035058;28;20221;-64
2022/12/24 02:12:40;;;;;;;12.97;9.47;;;7.20;99.90;;;;;;5029753;28;20206;-64
2022/12/24 02:15:10;;;;;;;10.80;9.03;;;7.20;99.90;;;;;;5026040;28;20199;-63
2022/12/24 02:18:11;;;;;;;10.87;9.03;;;7.20;99.90;;;;;;5026587;28;20211;-63
2022/12/24 02:20:58;;;;;;;14.13;9.63;;;7.10;99.90;;;;;;5029406;28;20249;-61
2022/12/24 02:24:10;;;;;;;15.30;10.07;;;7.00;99.90;;;;;;5037754;28;20205;-62
2022/12/24 02:26:57;;;;;;;12.60;8.70;;;7.00;99.90;;;;;;4990426;28;20214;-63
2022/12/24 02:29:59;;;;;;;15.57;9.97;;;6.90;99.90;;;;;;5034389;28;20253;-63
2022/12/24 02:32:39;;;;;;;13.83;10.67;;;7.00;99.90;;;;;;5031376;28;20218;-64
2022/12/24 02:35:10;;;;;;;11.10;9.73;;;6.90;99.90;;;;;;5032727;28;20202;-64
2022/12/24 02:37:57;;;;;;;20.43;14.20;;;6.90;99.90;;;;;;5032745;28;20195;-64
2022/12/24 02:40:32;;;;;;;23.00;14.90;;;6.90;99.90;;;;;;5037666;28;20202;-64
2022/12/24 02:43:04;;;;;;;20.30;13.60;;;7.00;99.90;;;;;;5037428;28;20660;-64
2022/12/24 02:45:33;;;;;;;13.20;10.20;;;7.10;99.90;;;;;;5037323;28;20195;-63
2022/12/24 02:47:59;;;;;;;24.10;15.07;;;7.10;99.90;;;;;;5037137;28;20222;-63
2022/12/24 02:50:25;;;;;;;12.37;8.47;;;7.10;99.90;;;;;;5036447;28;20585;-64
2022/12/24 02:52:50;;;;;;;13.27;10.57;;;7.10;99.90;;;;;;5037247;28;20206;-64
2022/12/24 02:55:43;;;;;;;33.87;19.37;;;7.00;99.90;;;;;;5030232;28;20286;-63
2022/12/24 02:58:33;;;;;;;12.90;9.73;;;7.00;99.90;;;;;;5035004;28;20531;-63
2022/12/24 03:01:24;;;;;;;24.67;16.17;;;7.10;99.90;;;;;;5026917;28;20210;-64
2022/12/24 03:04:18;;;;;;;13.80;9.83;;;7.10;99.90;;;;;;5030117;28;20210;-62
2022/12/24 03:07:04;;;;;;;14.00;10.77;;;7.20;99.90;;;;;;5022146;28;20210;-63
2022/12/24 03:09:40;;;;;;;24.87;14.60;;;7.10;99.90;;;;;;5036262;28;20579;-64
2022/12/24 03:12:19;;;;;;;14.57;9.87;;;7.20;99.90;;;;;;5034220;28;20202;-63
2022/12/24 03:14:47;;;;;;;25.90;14.53;;;7.20;99.90;;;;;;5031681;28;20198;-64
2022/12/24 03:17:14;;;;;;;17.67;12.63;;;7.10;99.90;;;;;;5030308;28;20211;-64
2022/12/24 03:19:42;;;;;;;16.27;11.87;;;7.20;99.90;;;;;;5033712;28;20268;-64
2022/12/24 03:22:10;;;;;;;13.87;9.67;;;7.20;99.90;;;;;;5036288;28;20206;-60
2022/12/24 03:24:36;;;;;;;25.30;15.60;;;7.20;99.90;;;;;;5031642;28;20237;-61
2022/12/24 03:27:05;;;;;;;13.83;10.73;;;7.30;99.90;;;;;;5036532;28;20570;-63
2022/12/24 03:29:31;;;;;;;12.73;9.90;;;7.30;99.90;;;;;;5033749;28;20218;-63
2022/12/24 03:32:02;;;;;;;18.33;12.70;;;7.30;99.90;;;;;;5030900;28;20204;-63
2022/12/24 03:34:28;;;;;;;15.73;12.00;;;7.30;99.90;;;;;;5036000;28;20203;-63
2022/12/24 03:36:54;;;;;;;14.47;10.03;;;7.30;99.90;;;;;;5035577;28;20542;-62
2022/12/24 03:39:19;;;;;;;12.57;10.30;;;7.30;99.90;;;;;;5035445;28;20198;-63
2022/12/24 03:41:45;;;;;;;12.77;10.57;;;7.30;99.90;;;;;;5036244;28;20298;-63
2022/12/24 03:44:11;;;;;;;15.70;11.03;;;7.30;99.90;;;;;;5036110;28;20207;-63
2022/12/24 03:46:36;;;;;;;12.87;9.87;;;7.30;99.90;;;;;;5036206;28;20217;-63
2022/12/24 03:49:02;;;;;;;11.10;9.47;;;7.30;99.90;;;;;;5035916;28;20272;-63
2022/12/24 03:51:28;;;;;;;15.57;11.40;;;7.30;99.90;;;;;;5034226;28;20202;-62
2022/12/24 03:53:55;;;;;;;12.63;10.20;;;7.30;99.90;;;;;;5035858;28;20602;-62
2022/12/24 03:56:21;;;;;;;13.13;9.97;;;7.30;99.90;;;;;;5036122;28;20203;-62
2022/12/24 03:58:47;;;;;;;12.10;10.87;;;7.40;99.90;;;;;;5035410;28;20621;-63
2022/12/24 04:01:12;;;;;;;12.97;9.77;;;7.40;99.90;;;;;;5035429;28;20278;-63
2022/12/24 04:03:38;;;;;;;14.17;9.97;;;7.40;99.90;;;;;;5034145;28;20230;-63
2022/12/24 04:06:07;;;;;;;12.83;9.73;;;7.40;99.90;;;;;;5035802;28;20570;-63
2022/12/24 04:08:32;;;;;;;12.07;9.23;;;7.40;99.90;;;;;;5035189;28;20238;-63
2022/12/24 04:10:58;;;;;;;11.50;9.23;;;7.40;99.90;;;;;;5036230;28;20735;-63
2022/12/24 04:13:23;;;;;;;11.60;9.53;;;7.30;99.90;;;;;;5035363;28;20222;-63
2022/12/24 04:16:00;;;;;;;12.77;9.27;;;7.30;99.90;;;;;;5033711;28;20256;-63
2022/12/24 04:18:26;;;;;;;11.67;9.40;;;7.20;99.90;;;;;;5034891;28;20660;-64
2022/12/24 04:20:51;;;;;;;14.10;9.13;;;7.20;99.90;;;;;;5034899;28;20771;-63
2022/12/24 04:23:17;;;;;;;12.20;9.50;;;7.20;99.90;;;;;;5036106;28;20297;-63
2022/12/24 04:25:42;;;;;;;12.37;8.67;;;7.30;99.90;;;;;;5033413;28;20266;-62
2022/12/24 04:28:08;;;;;;;48.93;29.93;;;7.30;99.90;;;;;;5035969;28;20209;-63
2022/12/24 04:30:33;;;;;;;15.27;9.83;;;7.30;99.90;;;;;;5035528;28;20239;-63
2022/12/24 04:32:59;;;;;;;16.93;11.33;;;7.30;99.90;;;;;;5035944;28;20202;-62
2022/12/24 04:35:24;;;;;;;9.93;7.60;;;7.30;99.90;;;;;;5034341;28;20203;-62
2022/12/24 04:37:50;;;;;;;11.37;9.53;;;7.30;99.90;;;;;;5030945;28;20210;-62
2022/12/24 04:40:15;;;;;;;20.07;14.60;;;7.30;99.90;;;;;;5035491;28;20199;-62
2022/12/24 04:42:41;;;;;;;24.27;15.83;;;7.40;99.90;;;;;;5035453;28;20210;-63
2022/12/24 04:45:07;;;;;;;10.80;9.40;;;7.50;99.90;;;;;;5036987;28;20195;-63
2022/12/24 04:47:32;;;;;;;19.10;10.70;;;7.50;99.90;;;;;;5037922;28;20202;-63
2022/12/24 04:50:00;;;;;;;16.87;13.07;;;7.40;99.90;;;;;;5037225;28;20679;-63
2022/12/24 04:52:26;;;;;;;18.43;12.40;;;7.50;99.90;;;;;;5039624;28;20209;-63
2022/12/24 04:54:51;;;;;;;12.70;9.70;;;7.50;99.90;;;;;;5039173;28;20205;-63
2022/12/24 04:57:17;;;;;;;11.23;8.87;;;7.40;99.90;;;;;;5039375;28;20787;-63
2022/12/24 04:59:42;;;;;;;14.97;10.97;;;7.40;99.90;;;;;;5039510;28;20202;-63
2022/12/24 05:02:08;;;;;;;39.50;26.00;;;7.40;99.90;;;;;;5039060;28;20211;-64
2022/12/24 05:04:34;;;;;;;14.63;10.50;;;7.40;99.90;;;;;;5036403;28;20210;-63
2022/12/24 05:06:59;;;;;;;62.07;38.53;;;7.50;99.90;;;;;;5034583;28;20198;-63
2022/12/24 05:09:24;;;;;;;70.37;38.30;;;7.50;99.90;;;;;;5038903;28;20306;-63
2022/12/24 05:11:50;;;;;;;23.37;14.67;;;7.50;99.90;;;;;;5039098;28;20683;-63
2022/12/24 05:14:15;;;;;;;67.77;40.67;;;7.50;99.90;;;;;;5038429;28;20277;-63
2022/12/24 05:16:42;;;;;;;30.43;19.27;;;7.50;99.90;;;;;;5037296;28;20843;-63
2022/12/24 05:19:08;;;;;;;40.83;25.47;;;7.50;99.90;;;;;;5034310;28;20199;-63
2022/12/24 05:21:34;;;;;;;44.27;25.57;;;7.50;99.90;;;;;;5038423;28;20696;-63
2022/12/24 05:26:48;;;;;;;25.80;17.73;;;7.50;99.90;;;;;;5038817;28;20283;-63
2022/12/24 05:29:14;;;;;;;14.03;7.90;;;7.50;99.90;;;;;;5038635;28;20223;-62
2022/12/24 05:31:41;;;;;;;11.07;8.87;;;7.50;99.90;;;;;;5038247;28;20195;-62
2022/12/24 05:34:07;;;;;;;11.77;8.77;;;7.40;99.90;;;;;;5035164;28;20194;-63
2022/12/24 05:36:33;;;;;;;26.90;18.00;;;7.30;99.90;;;;;;5038242;28;20339;-61
2022/12/24 05:38:59;;;;;;;10.30;9.17;;;7.30;99.90;;;;;;5038300;28;21047;-62
2022/12/24 05:41:24;;;;;;;11.13;9.20;;;7.30;99.90;;;;;;5035685;28;21003;-62
2022/12/24 05:43:50;;;;;;;8.83;7.27;;;7.30;99.90;;;;;;5032189;28;20565;-63
2022/12/24 05:46:19;;;;;;;10.47;8.37;;;7.20;99.90;;;;;;5038188;28;20191;-62
2022/12/24 05:48:45;;;;;;;11.23;8.27;;;7.10;99.90;;;;;;5026447;28;20203;-62
2022/12/24 05:51:12;;;;;;;11.20;8.53;;;7.00;99.90;;;;;;5028677;28;20669;-62
2022/12/24 05:53:39;;;;;;;9.40;8.30;;;6.90;99.90;;;;;;5028978;28;20211;-62
2022/12/24 05:56:13;;;;;;;10.27;8.07;;;6.90;99.90;;;;;;5028203;28;20199;-63
2022/12/24 05:58:40;;;;;;;9.50;8.50;;;6.80;99.90;;;;;;5026151;28;20242;-62
2022/12/24 06:01:06;;;;;;;12.07;9.77;;;6.90;99.90;;;;;;5027821;28;20210;-63
2022/12/24 06:03:33;;;;;;;17.73;12.50;;;6.90;99.90;;;;;;5035114;28;20260;-62
2022/12/24 06:06:10;;;;;;;10.63;9.43;;;7.00;99.90;;;;;;5038548;28;20203;-61
2022/12/24 06:08:37;;;;;;;10.93;8.33;;;7.00;99.90;;;;;;5037673;28;20221;-62
2022/12/24 06:11:05;;;;;;;11.10;9.33;;;7.10;99.90;;;;;;5042669;28;20214;-63
2022/12/24 06:13:31;;;;;;;11.50;9.13;;;7.10;99.90;;;;;;5043034;28;20199;-63
2022/12/24 06:15:58;;;;;;;11.47;9.03;;;7.20;99.90;;;;;;5046025;28;20693;-62
2022/12/24 06:18:24;;;;;;;14.90;10.63;;;7.20;99.90;;;;;;5046293;28;20203;-62
2022/12/24 06:20:54;;;;;;;12.80;10.63;;;7.20;99.90;;;;;;5047373;28;20207;-62
2022/12/24 06:23:20;;;;;;;11.23;9.20;;;7.10;99.90;;;;;;5046166;28;20195;-65
2022/12/24 06:25:46;;;;;;;14.03;11.50;;;7.00;99.90;;;;;;5045657;28;20255;-62
2022/12/24 06:28:13;;;;;;;12.60;10.90;;;7.00;99.90;;;;;;5044505;28;20206;-63
2022/12/24 06:30:38;;;;;;;14.97;11.33;;;6.90;99.90;;;;;;5046125;28;20221;-62
2022/12/24 06:33:04;;;;;;;13.50;11.23;;;6.90;99.90;;;;;;5043094;28;20198;-64
2022/12/24 06:35:33;;;;;;;12.20;10.33;;;6.90;99.90;;;;;;5041159;28;20203;-62
2022/12/24 06:37:59;;;;;;;10.67;9.00;;;6.90;99.90;;;;;;5040899;28;20562;-61
2022/12/24 06:40:28;;;;;;;12.80;10.47;;;6.90;99.90;;;;;;5037832;28;20206;-61
2022/12/24 06:42:53;;;;;;;13.37;10.30;;;6.90;99.90;;;;;;5042265;28;20565;-62
2022/12/24 06:45:19;;;;;;;11.97;10.37;;;6.90;99.90;;;;;;5040684;28;20197;-62
2022/12/24 06:47:44;;;;;;;15.13;10.57;;;6.90;99.90;;;;;;5028457;28;20687;-62
2022/12/24 06:50:10;;;;;;;12.63;10.13;;;7.00;99.90;;;;;;5026789;28;20264;-62
2022/12/24 06:52:35;;;;;;;12.57;10.87;;;7.00;99.90;;;;;;5025353;28;20210;-62
2022/12/24 06:55:01;;;;;;;13.00;10.90;;;7.00;99.90;;;;;;5027398;28;20593;-61
2022/12/24 06:57:27;;;;;;;13.33;10.30;;;7.00;99.90;;;;;;5029793;28;20202;-61
2022/12/24 06:59:52;;;;;;;11.87;10.60;;;7.00;99.90;;;;;;5024215;28;20203;-62
2022/12/24 07:02:18;;;;;;;12.33;9.90;;;7.00;99.90;;;;;;5043905;28;20229;-62
2022/12/24 07:04:43;;;;;;;12.83;10.33;;;7.00;99.90;;;;;;5041431;28;20210;-61
2022/12/24 07:07:09;;;;;;;14.37;10.50;;;7.00;99.90;;;;;;5037937;28;20209;-61
2022/12/24 07:09:34;;;;;;;9.63;8.63;;;7.00;99.90;;;;;;5044578;28;21007;-61
2022/12/24 07:12:00;;;;;;;10.57;8.83;;;7.00;99.90;;;;;;5045343;28;20198;-60
2022/12/24 07:14:25;;;;;;;13.73;8.90;;;7.00;99.90;;;;;;5045661;28;20191;-62
2022/12/24 07:16:52;;;;;;;12.60;8.60;;;7.10;99.90;;;;;;5045510;28;20251;-61
2022/12/24 07:19:17;;;;;;;10.13;8.30;;;7.10;99.90;;;;;;5039326;28;20210;-61
2022/12/24 07:21:43;;;;;;;12.33;9.43;;;7.20;99.90;;;;;;5036833;28;20262;-62
2022/12/24 07:24:09;;;;;;;10.50;8.93;;;7.20;99.90;;;;;;5026885;28;20227;-62
2022/12/24 07:26:34;;;;;;;11.00;9.47;;;7.20;99.90;;;;;;5036752;28;20612;-61
2022/12/24 07:29:00;;;;;;;11.73;8.57;;;7.30;99.90;;;;;;5036285;28;20194;-63
2022/12/24 07:31:25;;;;;;;11.83;8.17;;;7.30;99.90;;;;;;5034637;28;20186;-63
2022/12/24 07:33:51;;;;;;;9.37;8.07;;;7.20;99.90;;;;;;5027098;28;20206;-63
2022/12/24 07:36:19;;;;;;;9.03;8.00;;;7.30;99.90;;;;;;5036091;28;20230;-63
2022/12/24 07:38:45;;;;;;;11.60;8.17;;;7.30;99.90;;;;;;5033323;28;20671;-63
2022/12/24 07:41:11;;;;;;;9.20;7.93;;;7.20;99.90;;;;;;5024593;28;20720;-63
2022/12/24 07:43:37;;;;;;;8.97;7.83;;;7.20;99.90;;;;;;5024982;28;20311;-63
2022/12/24 07:46:02;;;;;;;11.30;8.50;;;7.10;99.90;;;;;;5024326;28;20205;-61
2022/12/24 07:48:33;;;;;;;14.03;9.30;;;7.10;99.90;;;;;;5025602;28;20200;-62
2022/12/24 07:50:59;;;;;;;8.97;8.07;;;7.10;99.90;;;;;;5029459;28;20219;-62
2022/12/24 07:53:26;;;;;;;10.47;8.97;;;7.10;99.90;;;;;;5035899;28;20256;-62
2022/12/24 07:55:52;;;;;;;11.50;9.20;;;7.10;99.90;;;;;;5035653;28;20293;-61
2022/12/24 07:58:18;;;;;;;10.43;8.90;;;7.20;99.90;;;;;;5033716;28;20293;-61
2022/12/24 08:00:44;;;;;;;12.17;9.53;;;7.20;99.90;;;;;;5035949;28;20206;-61
2022/12/24 08:03:19;;;;;;;10.40;8.83;;;7.20;99.90;;;;;;5035624;28;20575;-62
2022/12/24 08:05:45;;;;;;;9.90;8.60;;;7.20;99.90;;;;;;5035850;28;20209;-62
2022/12/24 08:08:11;;;;;;;12.40;10.03;;;7.20;99.90;;;;;;5032307;28;20207;-60
2022/12/24 08:10:38;;;;;;;12.87;9.70;;;7.30;99.90;;;;;;5035511;28;20848;-61
2022/12/24 08:13:04;;;;;;;13.80;11.17;;;7.30;99.90;;;;;;5035660;28;20205;-62
2022/12/24 08:15:29;;;;;;;12.37;10.00;;;7.30;99.90;;;;;;5031221;28;22831;-59
2022/12/24 08:17:55;;;;;;;11.27;9.30;;;7.30;99.90;;;;;;5035216;28;20209;-60
2022/12/24 08:20:20;;;;;;;13.17;9.60;;;7.30;99.90;;;;;;5038867;28;20214;-62
2022/12/24 08:22:46;;;;;;;10.50;9.13;;;7.30;99.90;;;;;;5044071;28;20293;-61
2022/12/24 08:25:11;;;;;;;11.37;9.20;;;7.30;99.90;;;;;;5043415;28;20237;-61
2022/12/24 08:27:37;;;;;;;11.83;9.70;;;7.40;99.90;;;;;;5044353;28;20247;-62
2022/12/24 08:30:04;;;;;;;12.10;10.57;;;7.50;99.90;;;;;;5027858;28;20271;-62
2022/12/24 08:32:29;;;;;;;11.63;10.43;;;7.40;99.90;;;;;;5028359;28;20665;-62
2022/12/24 08:34:55;;;;;;;12.40;9.77;;;7.40;99.90;;;;;;5036614;28;20239;-61
2022/12/24 08:37:20;;;;;;;15.63;11.07;;;7.40;99.90;;;;;;5038073;28;20325;-60
2022/12/24 08:39:46;;;;;;;15.17;11.57;;;7.40;99.90;;;;;;5040002;28;20206;-62
2022/12/24 08:42:11;;;;;;;13.30;10.07;;;7.40;99.90;;;;;;5038590;28;20657;-61
2022/12/24 08:44:37;;;;;;;11.80;10.60;;;7.30;99.90;;;;;;5040163;28;20684;-61
2022/12/24 08:47:02;;;;;;;11.47;9.87;;;7.30;99.90;;;;;;5039642;28;20206;-62
2022/12/24 08:49:28;;;;;;;12.70;10.27;;;7.30;99.90;;;;;;5039972;28;20214;-62
2022/12/24 08:51:53;;;;;;;13.17;9.77;;;7.30;99.90;;;;;;5039795;28;21004;-62
2022/12/24 08:54:19;;;;;;;11.47;9.53;;;7.30;99.90;;;;;;5033869;28;20210;-62
2022/12/24 08:56:44;;;;;;;15.23;10.67;;;7.30;99.90;;;;;;5039800;28;20724;-62
2022/12/24 08:59:11;;;;;;;13.27;11.27;;;7.30;99.90;;;;;;5039596;28;20210;-62
2022/12/24 09:01:37;;;;;;;14.20;10.07;;;7.30;99.90;;;;;;5028363;28;20656;-63
2022/12/24 09:04:03;;;;;;;12.77;10.33;;;7.30;99.90;;;;;;5028455;28;20199;-63
2022/12/24 09:06:28;;;;;;;13.57;9.47;;;7.30;99.90;;;;;;5030457;28;21110;-63
2022/12/24 09:08:54;;;;;;;10.73;9.63;;;7.40;99.90;;;;;;5029669;28;20786;-63
2022/12/24 09:11:19;;;;;;;12.97;10.23;;;7.40;99.90;;;;;;5029304;28;20340;-63
2022/12/24 09:13:45;;;;;;;14.93;10.60;;;7.50;99.90;;;;;;5029652;28;20191;-63
2022/12/24 09:16:11;;;;;;;11.97;9.50;;;7.50;99.90;;;;;;5026343;28;20238;-62
2022/12/24 09:18:37;;;;;;;12.77;9.83;;;7.50;99.90;;;;;;5025277;28;20203;-63
2022/12/24 09:21:06;;;;;;;11.83;9.50;;;7.50;99.90;;;;;;5028958;28;20213;-63
2022/12/24 09:23:38;;;;;;;12.20;9.77;;;7.40;99.90;;;;;;5028694;28;20222;-63
2022/12/24 09:26:05;;;;;;;13.33;10.57;;;7.40;99.90;;;;;;5028654;28;20195;-63
2022/12/24 09:28:31;;;;;;;13.70;10.63;;;7.50;99.90;;;;;;5025692;28;20203;-63
2022/12/24 09:30:58;;;;;;;13.13;10.90;;;7.50;99.90;;;;;;5031706;28;20214;-63
2022/12/24 09:33:24;;;;;;;15.10;11.30;;;7.50;99.90;;;;;;5026341;28;20213;-63
2022/12/24 09:35:51;;;;;;;16.77;10.43;;;7.50;99.90;;;;;;5030252;28;20736;-63
2022/12/24 09:38:18;;;;;;;13.57;11.00;;;7.50;99.90;;;;;;5025921;28;20206;-60
2022/12/24 09:40:44;;;;;;;15.27;10.20;;;7.60;99.90;;;;;;5028632;28;20565;-64
2022/12/24 09:43:24;;;;;;;13.43;10.80;;;7.70;99.90;;;;;;5027661;28;20206;-60
2022/12/24 09:46:06;;;;;;;12.30;10.57;;;7.70;99.90;;;;;;5044186;28;20197;-62
2022/12/24 09:48:37;;;;;;;14.73;12.03;;;7.80;99.90;;;;;;5040960;28;20212;-61
2022/12/24 09:51:09;;;;;;;15.07;11.07;;;7.80;99.90;;;;;;5039140;28;20246;-62
2022/12/24 09:53:57;;;;;;;13.77;10.63;;;7.90;99.90;;;;;;5045828;28;20202;-62
2022/12/24 09:56:38;;;;;;;14.27;10.17;;;8.00;99.90;;;;;;5024475;28;20227;-62
2022/12/24 09:59:08;;;;;;;13.20;10.63;;;8.00;99.90;;;;;;5028453;28;20194;-61
2022/12/24 10:01:34;;;;;;;15.13;12.43;;;7.90;99.90;;;;;;5027625;28;20289;-61
2022/12/24 10:04:22;;;;;;;15.47;11.10;;;8.00;99.90;;;;;;5035417;28;20290;-61
2022/12/24 10:06:47;;;;;;;15.27;10.53;;;8.10;99.90;;;;;;5038118;28;20211;-61
2022/12/24 10:09:22;;;;;;;15.83;12.37;;;8.20;99.90;;;;;;5038047;28;20222;-61
2022/12/24 10:12:13;;;;;;;13.70;11.10;;;8.20;99.90;;;;;;5038007;28;20213;-62
2022/12/24 10:14:51;;;;;;;15.10;11.30;;;8.20;99.90;;;;;;4999634;28;20230;-61
2022/12/24 10:17:47;;;;;;;14.10;11.27;;;8.20;99.90;;;;;;5037759;28;20252;-61
2022/12/24 10:20:39;;;;;;;14.70;11.03;;;8.10;99.90;;;;;;5037695;28;20717;-60
2022/12/24 10:23:44;;;;;;;13.17;11.00;;;8.00;99.90;;;;;;5037781;28;20589;-62
2022/12/24 10:26:21;;;;;;;11.20;9.97;;;8.00;99.90;;;;;;5036772;28;20376;-63
2022/12/24 10:28:51;;;;;;;15.03;11.20;;;8.20;99.90;;;;;;5035427;28;20855;-62
2022/12/24 10:31:19;;;;;;;13.53;11.43;;;8.20;99.90;;;;;;5037647;28;20198;-62
2022/12/24 10:33:52;;;;;;;12.13;10.07;;;8.10;99.90;;;;;;5037976;28;20206;-63
2022/12/24 10:36:26;;;;;;;12.93;11.33;;;8.00;99.90;;;;;;5035179;28;20566;-62
2022/12/24 10:38:51;;;;;;;11.77;10.07;;;7.80;99.90;;;;;;5039978;28;20197;-63
2022/12/24 10:41:17;;;;;;;13.37;11.03;;;7.80;99.90;;;;;;5038948;28;20198;-64
2022/12/24 10:43:44;;;;;;;15.00;11.10;;;7.70;99.90;;;;;;5041138;28;20200;-64
2022/12/24 10:46:20;;;;;;;13.83;10.80;;;7.60;99.90;;;;;;5035050;28;20680;-64
2022/12/24 10:49:11;;;;;;;14.07;10.00;;;7.60;99.90;;;;;;5033879;28;20206;-64
2022/12/24 10:51:49;;;;;;;12.33;10.23;;;7.70;99.90;;;;;;5029728;28;20271;-64
2022/12/24 10:54:23;;;;;;;12.77;10.27;;;7.60;99.90;;;;;;5036024;28;20221;-68
2022/12/24 10:56:55;;;;;;;13.30;9.90;;;7.60;99.90;;;;;;5037596;28;20239;-66
2022/12/24 10:59:51;;;;;;;13.17;11.27;;;7.60;99.90;;;;;;5042139;28;20848;-66
2022/12/24 11:02:34;;;;;;;12.73;9.73;;;7.50;99.90;;;;;;5033105;28;20375;-67
2022/12/24 11:05:01;;;;;;;17.23;11.43;;;7.50;99.90;;;;;;5040629;28;20222;-67
2022/12/24 11:07:30;;;;;;;12.67;10.63;;;7.40;99.90;;;;;;5045808;28;20209;-66
2022/12/24 11:10:00;;;;;;;12.70;10.57;;;7.40;99.90;;;;;;5038234;28;20696;-65
2022/12/24 11:12:45;;;;;;;16.70;11.07;;;7.40;99.90;;;;;;5028577;28;20289;-65
2022/12/24 11:15:18;;;;;;;13.33;11.27;;;7.30;99.90;;;;;;5034720;28;20652;-66
2022/12/24 11:18:03;;;;;;;14.17;11.87;;;7.30;99.90;;;;;;5034295;28;20199;-65
2022/12/24 11:20:30;;;;;;;18.37;12.47;;;7.40;99.90;;;;;;5037041;28;20221;-65
2022/12/24 11:22:57;;;;;;;14.47;11.83;;;7.40;99.90;;;;;;5040498;28;20281;-66
2022/12/24 11:25:30;;;;;;;15.20;11.97;;;7.40;99.90;;;;;;5035076;28;20230;-65
2022/12/24 11:28:08;;;;;;;15.70;11.40;;;7.50;99.90;;;;;;5044421;28;20203;-65
2022/12/24 11:30:35;;;;;;;13.37;10.73;;;7.60;99.90;;;;;;5042830;28;20220;-66
2022/12/24 11:33:01;;;;;;;14.80;11.30;;;7.60;99.90;;;;;;5033911;28;20199;-67
2022/12/24 11:35:30;;;;;;;13.13;10.93;;;7.60;99.90;;;;;;5036081;28;20260;-65
2022/12/24 11:37:58;;;;;;;14.17;11.17;;;7.60;99.90;;;;;;5037883;28;20523;-65
2022/12/24 11:40:27;;;;;;;13.53;10.83;;;7.60;99.90;;;;;;5037451;28;20857;-64
2022/12/24 11:42:59;;;;;;;13.57;10.93;;;7.60;99.90;;;;;;5039463;28;20559;-65
2022/12/24 11:45:30;;;;;;;14.40;10.67;;;7.60;99.90;;;;;;5037072;28;20206;-65
2022/12/24 11:47:57;;;;;;;13.53;9.53;;;7.70;99.90;;;;;;5044639;28;20205;-65
2022/12/24 11:50:28;;;;;;;13.63;10.53;;;7.80;99.90;;;;;;5033510;28;20238;-65
2022/12/24 11:53:03;;;;;;;11.20;9.27;;;7.80;99.90;;;;;;5034387;28;20199;-74
2022/12/24 11:55:43;;;;;;;13.37;10.30;;;7.90;99.90;;;;;;5036172;28;20202;-63
2022/12/24 11:58:35;;;;;;;16.10;9.97;;;7.90;99.90;;;;;;5033946;28;20291;-64
2022/12/24 12:01:28;;;;;;;11.13;10.03;;;7.90;99.90;;;;;;5033928;28;20312;-64
2022/12/24 12:03:59;;;;;;;14.33;10.10;;;8.00;99.90;;;;;;5035578;28;20213;-64
2022/12/24 12:06:31;;;;;;;13.20;10.03;;;8.00;99.90;;;;;;5035836;28;20199;-64
2022/12/24 12:09:03;;;;;;;10.50;8.53;;;8.10;99.90;;;;;;5034490;28;20238;-65
2022/12/24 12:11:31;;;;;;;11.50;9.27;;;8.20;99.90;;;;;;5044048;28;20207;-65
2022/12/24 12:13:59;;;;;;;9.60;7.60;;;8.20;99.90;;;;;;5040384;28;20193;-63
2022/12/24 12:16:59;;;;;;;9.43;7.70;;;8.20;99.90;;;;;;5046228;28;20210;-65
2022/12/24 12:19:27;;;;;;;10.53;8.50;;;8.30;99.90;;;;;;5040907;28;20200;-65
2022/12/24 12:21:52;;;;;;;8.17;7.13;;;8.20;99.90;;;;;;5042992;28;20221;-66
2022/12/24 12:24:25;;;;;;;10.90;7.47;;;8.30;99.90;;;;;;5037105;28;20226;-64
2022/12/24 12:27:09;;;;;;;8.33;7.43;;;8.50;99.90;;;;;;5037391;28;20230;-65
2022/12/24 12:29:42;;;;;;;9.90;6.77;;;8.70;99.90;;;;;;5028187;28;20227;-72
2022/12/24 12:32:21;;;;;;;9.20;7.40;;;8.80;99.90;;;;;;5034159;28;20205;-67
2022/12/24 12:35:00;;;;;;;7.03;6.33;;;8.90;99.90;;;;;;5034214;28;20739;-66
2022/12/24 12:37:40;;;;;;;7.23;5.83;;;8.90;99.90;;;;;;5036396;28;20293;-66
2022/12/24 12:40:15;;;;;;;11.43;6.57;;;8.80;99.90;;;;;;5032779;28;20680;-66
2022/12/24 12:42:53;;;;;;;9.20;6.13;;;8.70;99.90;;;;;;5023087;28;20573;-66
2022/12/24 12:45:57;;;;;;;7.77;5.93;;;8.80;99.90;;;;;;5024879;28;20195;-66
2022/12/24 12:48:42;;;;;;;7.10;6.10;;;8.70;99.90;;;;;;5022964;28;20210;-66
2022/12/24 12:51:27;;;;;;;9.00;6.03;;;8.70;99.90;;;;;;5025132;28;20221;-66
2022/12/24 12:54:16;;;;;;;9.20;7.17;;;8.70;99.90;;;;;;5023601;28;20195;-66
2022/12/24 12:56:47;;;;;;;6.67;5.97;;;8.80;99.90;;;;;;5025878;28;20203;-67
2022/12/24 12:59:24;;;;;;;9.50;5.90;;;9.00;99.90;;;;;;5025345;28;20194;-67
2022/12/24 13:02:03;;;;;;;9.60;6.40;;;9.20;99.90;;;;;;5026058;28;20222;-67
2022/12/24 13:04:59;;;;;;;9.67;6.40;;;9.30;99.90;;;;;;5025885;28;20263;-69
2022/12/24 13:07:41;;;;;;;11.33;10.17;;;9.30;99.90;;;;;;5029288;28;20199;-68